sensor_id;sensor_type;location;lat;lon;timestamp;P1;durP1;ratioP1;P2;durP2;ratioP2
64157;SDS011;50449;51.528;5.076;2022-09-09T00:01:25;42.67;;;40.47;;
64157;SDS011;50449;51.528;5.076;2022-09-09T00:06:53;40.28;;;38.38;;
64157;SDS011;50449;51.528;5.076;2022-09-09T00:09:21;45.80;;;43.13;;
64157;SDS011;50449;51.528;5.076;2022-09-09T00:11:52;43.25;;;41.15;;
64157;SDS011;50449;51.528;5.076;2022-09-09T00:17:01;42.40;;;40.40;;
64157;SDS011;50449;51.528;5.076;2022-09-09T00:22:19;45.00;;;42.90;;
64157;SDS011;50449;51.528;5.076;2022-09-09T00:24:54;42.50;;;40.42;;
64157;SDS011;50449;51.528;5.076;2022-09-09T00:32:49;42.22;;;39.67;;
64157;SDS011;50449;51.528;5.076;2022-09-09T00:35:23;42.35;;;40.30;;
64157;SDS011;50449;51.528;5.076;2022-09-09T00:37:53;42.80;;;40.55;;
64157;SDS011;50449;51.528;5.076;2022-09-09T00:40:27;43.88;;;41.78;;
64157;SDS011;50449;51.528;5.076;2022-09-09T00:48:19;42.95;;;40.55;;
64157;SDS011;50449;51.528;5.076;2022-09-09T00:50:56;42.75;;;40.58;;
64157;SDS011;50449;51.528;5.076;2022-09-09T00:56:16;42.42;;;40.40;;
64157;SDS011;50449;51.528;5.076;2022-09-09T00:58:55;43.72;;;41.53;;
64157;SDS011;50449;51.528;5.076;2022-09-09T01:01:33;41.92;;;39.83;;
64157;SDS011;50449;51.528;5.076;2022-09-09T01:04:00;41.10;;;39.08;;
64157;SDS011;50449;51.528;5.076;2022-09-09T01:09:04;42.97;;;40.72;;
64157;SDS011;50449;51.528;5.076;2022-09-09T01:11:52;43.45;;;41.28;;
64157;SDS011;50449;51.528;5.076;2022-09-09T01:17:12;42.28;;;40.28;;
64157;SDS011;50449;51.528;5.076;2022-09-09T01:22:13;42.97;;;40.67;;
64157;SDS011;50449;51.528;5.076;2022-09-09T01:27:44;42.38;;;40.17;;
64157;SDS011;50449;51.528;5.076;2022-09-09T01:30:14;41.97;;;39.88;;
64157;SDS011;50449;51.528;5.076;2022-09-09T01:32:45;41.88;;;39.63;;
64157;SDS011;50449;51.528;5.076;2022-09-09T01:35:25;41.08;;;39.05;;
64157;SDS011;50449;51.528;5.076;2022-09-09T01:38:25;40.53;;;38.53;;
64157;SDS011;50449;51.528;5.076;2022-09-09T01:40:52;43.72;;;41.63;;
64157;SDS011;50449;51.528;5.076;2022-09-09T01:43:21;43.58;;;41.17;;
64157;SDS011;50449;51.528;5.076;2022-09-09T01:45:49;42.40;;;40.20;;
64157;SDS011;50449;51.528;5.076;2022-09-09T01:48:19;41.85;;;39.75;;
64157;SDS011;50449;51.528;5.076;2022-09-09T01:50:46;43.00;;;40.67;;
64157;SDS011;50449;51.528;5.076;2022-09-09T01:53:11;42.47;;;40.38;;
64157;SDS011;50449;51.528;5.076;2022-09-09T01:55:39;41.78;;;39.58;;
64157;SDS011;50449;51.528;5.076;2022-09-09T02:00:48;42.22;;;39.75;;
64157;SDS011;50449;51.528;5.076;2022-09-09T02:03:22;41.53;;;39.42;;
64157;SDS011;50449;51.528;5.076;2022-09-09T02:05:55;43.30;;;40.10;;
64157;SDS011;50449;51.528;5.076;2022-09-09T02:08:43;43.63;;;41.47;;
64157;SDS011;50449;51.528;5.076;2022-09-09T02:11:16;43.58;;;41.17;;
64157;SDS011;50449;51.528;5.076;2022-09-09T02:13:44;41.50;;;39.42;;
64157;SDS011;50449;51.528;5.076;2022-09-09T02:18:51;42.05;;;39.95;;
64157;SDS011;50449;51.528;5.076;2022-09-09T02:21:28;42.22;;;39.95;;
64157;SDS011;50449;51.528;5.076;2022-09-09T02:23:56;42.03;;;39.85;;
64157;SDS011;50449;51.528;5.076;2022-09-09T02:26:24;40.60;;;38.55;;
64157;SDS011;50449;51.528;5.076;2022-09-09T02:28:52;41.50;;;39.42;;
64157;SDS011;50449;51.528;5.076;2022-09-09T02:31:21;41.63;;;39.53;;
64157;SDS011;50449;51.528;5.076;2022-09-09T02:36:21;39.42;;;37.22;;
64157;SDS011;50449;51.528;5.076;2022-09-09T02:38:49;40.78;;;38.65;;
64157;SDS011;50449;51.528;5.076;2022-09-09T02:41:21;43.75;;;41.22;;
64157;SDS011;50449;51.528;5.076;2022-09-09T02:43:51;40.60;;;38.42;;
64157;SDS011;50449;51.528;5.076;2022-09-09T02:54:26;39.20;;;37.20;;
64157;SDS011;50449;51.528;5.076;2022-09-09T02:56:55;41.47;;;38.67;;
64157;SDS011;50449;51.528;5.076;2022-09-09T02:59:29;40.60;;;38.55;;
64157;SDS011;50449;51.528;5.076;2022-09-09T03:01:55;40.97;;;38.83;;
64157;SDS011;50449;51.528;5.076;2022-09-09T03:04:21;39.40;;;37.50;;
64157;SDS011;50449;51.528;5.076;2022-09-09T03:06:46;40.65;;;37.60;;
64157;SDS011;50449;51.528;5.076;2022-09-09T03:09:12;39.63;;;37.38;;
64157;SDS011;50449;51.528;5.076;2022-09-09T03:11:37;39.38;;;37.10;;
64157;SDS011;50449;51.528;5.076;2022-09-09T03:14:03;39.50;;;37.28;;
64157;SDS011;50449;51.528;5.076;2022-09-09T03:16:29;39.28;;;37.28;;
64157;SDS011;50449;51.528;5.076;2022-09-09T03:18:54;40.47;;;38.38;;
64157;SDS011;50449;51.528;5.076;2022-09-09T03:21:20;40.15;;;37.95;;
64157;SDS011;50449;51.528;5.076;2022-09-09T03:23:46;40.25;;;38.13;;
64157;SDS011;50449;51.528;5.076;2022-09-09T03:26:11;39.72;;;37.53;;
64157;SDS011;50449;51.528;5.076;2022-09-09T03:28:36;40.08;;;37.97;;
64157;SDS011;50449;51.528;5.076;2022-09-09T03:31:03;41.25;;;38.53;;
64157;SDS011;50449;51.528;5.076;2022-09-09T03:33:30;39.85;;;37.83;;
64157;SDS011;50449;51.528;5.076;2022-09-09T03:35:56;42.75;;;40.40;;
64157;SDS011;50449;51.528;5.076;2022-09-09T03:38:25;39.38;;;37.45;;
64157;SDS011;50449;51.528;5.076;2022-09-09T03:40:51;40.90;;;38.60;;
64157;SDS011;50449;51.528;5.076;2022-09-09T03:43:24;39.72;;;37.63;;
64157;SDS011;50449;51.528;5.076;2022-09-09T03:45:50;41.55;;;39.50;;
64157;SDS011;50449;51.528;5.076;2022-09-09T03:48:16;40.40;;;37.70;;
64157;SDS011;50449;51.528;5.076;2022-09-09T03:50:49;40.10;;;38.03;;
64157;SDS011;50449;51.528;5.076;2022-09-09T03:53:17;39.30;;;36.70;;
64157;SDS011;50449;51.528;5.076;2022-09-09T03:55:47;40.10;;;37.83;;
64157;SDS011;50449;51.528;5.076;2022-09-09T03:58:17;39.47;;;37.47;;
64157;SDS011;50449;51.528;5.076;2022-09-09T04:00:44;38.88;;;36.78;;
64157;SDS011;50449;51.528;5.076;2022-09-09T04:03:25;38.55;;;36.60;;
64157;SDS011;50449;51.528;5.076;2022-09-09T04:05:51;38.97;;;37.05;;
64157;SDS011;50449;51.528;5.076;2022-09-09T04:08:17;39.60;;;37.53;;
64157;SDS011;50449;51.528;5.076;2022-09-09T04:10:47;40.13;;;38.13;;
64157;SDS011;50449;51.528;5.076;2022-09-09T04:13:13;38.72;;;36.63;;
64157;SDS011;50449;51.528;5.076;2022-09-09T04:15:41;40.93;;;38.57;;
64157;SDS011;50449;51.528;5.076;2022-09-09T04:18:07;42.63;;;40.25;;
64157;SDS011;50449;51.528;5.076;2022-09-09T04:20:33;39.30;;;37.30;;
64157;SDS011;50449;51.528;5.076;2022-09-09T04:22:58;38.67;;;36.63;;
64157;SDS011;50449;51.528;5.076;2022-09-09T04:25:24;37.17;;;35.22;;
64157;SDS011;50449;51.528;5.076;2022-09-09T04:27:53;37.40;;;35.35;;
64157;SDS011;50449;51.528;5.076;2022-09-09T04:30:19;37.38;;;35.40;;
64157;SDS011;50449;51.528;5.076;2022-09-09T04:32:45;38.10;;;35.75;;
64157;SDS011;50449;51.528;5.076;2022-09-09T04:35:11;38.70;;;36.25;;
64157;SDS011;50449;51.528;5.076;2022-09-09T04:37:36;38.72;;;36.55;;
64157;SDS011;50449;51.528;5.076;2022-09-09T04:40:02;39.78;;;37.13;;
64157;SDS011;50449;51.528;5.076;2022-09-09T04:42:27;38.95;;;35.95;;
64157;SDS011;50449;51.528;5.076;2022-09-09T04:44:53;38.03;;;36.10;;
64157;SDS011;50449;51.528;5.076;2022-09-09T04:47:19;39.30;;;37.40;;
64157;SDS011;50449;51.528;5.076;2022-09-09T04:49:44;39.33;;;36.83;;
64157;SDS011;50449;51.528;5.076;2022-09-09T04:52:09;39.63;;;37.28;;
64157;SDS011;50449;51.528;5.076;2022-09-09T04:54:35;37.25;;;35.35;;
64157;SDS011;50449;51.528;5.076;2022-09-09T04:57:00;38.85;;;36.85;;
64157;SDS011;50449;51.528;5.076;2022-09-09T04:59:26;37.15;;;35.25;;
64157;SDS011;50449;51.528;5.076;2022-09-09T05:01:51;37.20;;;35.30;;
64157;SDS011;50449;51.528;5.076;2022-09-09T05:04:16;37.67;;;35.40;;
64157;SDS011;50449;51.528;5.076;2022-09-09T05:06:42;37.45;;;35.42;;
64157;SDS011;50449;51.528;5.076;2022-09-09T05:09:07;38.38;;;36.30;;
64157;SDS011;50449;51.528;5.076;2022-09-09T05:11:34;37.13;;;35.10;;
64157;SDS011;50449;51.528;5.076;2022-09-09T05:14:03;38.38;;;36.17;;
64157;SDS011;50449;51.528;5.076;2022-09-09T05:16:29;38.78;;;36.20;;
64157;SDS011;50449;51.528;5.076;2022-09-09T05:18:55;38.88;;;36.47;;
64157;SDS011;50449;51.528;5.076;2022-09-09T05:21:21;39.17;;;36.97;;
64157;SDS011;50449;51.528;5.076;2022-09-09T05:23:48;39.40;;;36.58;;
64157;SDS011;50449;51.528;5.076;2022-09-09T05:26:14;38.63;;;36.33;;
64157;SDS011;50449;51.528;5.076;2022-09-09T05:28:41;36.80;;;34.63;;
64157;SDS011;50449;51.528;5.076;2022-09-09T05:31:08;39.42;;;37.28;;
64157;SDS011;50449;51.528;5.076;2022-09-09T05:33:36;38.53;;;36.42;;
64157;SDS011;50449;51.528;5.076;2022-09-09T05:36:03;39.33;;;37.00;;
64157;SDS011;50449;51.528;5.076;2022-09-09T05:38:30;36.33;;;34.63;;
64157;SDS011;50449;51.528;5.076;2022-09-09T05:40:57;38.17;;;35.67;;
64157;SDS011;50449;51.528;5.076;2022-09-09T05:43:23;37.45;;;35.28;;
64157;SDS011;50449;51.528;5.076;2022-09-09T05:45:58;37.97;;;36.08;;
64157;SDS011;50449;51.528;5.076;2022-09-09T05:48:31;37.65;;;35.35;;
64157;SDS011;50449;51.528;5.076;2022-09-09T05:50:59;36.80;;;34.88;;
64157;SDS011;50449;51.528;5.076;2022-09-09T05:53:28;37.05;;;35.22;;
64157;SDS011;50449;51.528;5.076;2022-09-09T05:55:58;36.72;;;34.80;;
64157;SDS011;50449;51.528;5.076;2022-09-09T05:58:24;37.05;;;35.25;;
64157;SDS011;50449;51.528;5.076;2022-09-09T06:00:50;36.60;;;34.67;;
64157;SDS011;50449;51.528;5.076;2022-09-09T06:03:15;37.97;;;35.80;;
64157;SDS011;50449;51.528;5.076;2022-09-09T06:05:42;36.15;;;33.90;;
64157;SDS011;50449;51.528;5.076;2022-09-09T06:08:07;38.80;;;36.40;;
64157;SDS011;50449;51.528;5.076;2022-09-09T06:10:33;37.30;;;35.13;;
64157;SDS011;50449;51.528;5.076;2022-09-09T06:12:59;37.53;;;35.55;;
64157;SDS011;50449;51.528;5.076;2022-09-09T06:15:24;37.45;;;35.15;;
64157;SDS011;50449;51.528;5.076;2022-09-09T06:17:56;37.42;;;35.55;;
64157;SDS011;50449;51.528;5.076;2022-09-09T06:20:21;37.10;;;35.00;;
64157;SDS011;50449;51.528;5.076;2022-09-09T06:22:47;36.13;;;34.33;;
64157;SDS011;50449;51.528;5.076;2022-09-09T06:25:13;39.35;;;37.00;;
64157;SDS011;50449;51.528;5.076;2022-09-09T06:27:39;36.95;;;34.80;;
64157;SDS011;50449;51.528;5.076;2022-09-09T06:30:04;38.35;;;36.13;;
64157;SDS011;50449;51.528;5.076;2022-09-09T06:32:30;38.03;;;35.15;;
64157;SDS011;50449;51.528;5.076;2022-09-09T06:34:56;38.00;;;35.97;;
64157;SDS011;50449;51.528;5.076;2022-09-09T06:37:21;38.58;;;35.53;;
64157;SDS011;50449;51.528;5.076;2022-09-09T06:39:49;37.25;;;35.10;;
64157;SDS011;50449;51.528;5.076;2022-09-09T06:42:14;37.90;;;35.45;;
64157;SDS011;50449;51.528;5.076;2022-09-09T06:44:40;36.70;;;34.85;;
64157;SDS011;50449;51.528;5.076;2022-09-09T06:47:06;37.15;;;35.13;;
64157;SDS011;50449;51.528;5.076;2022-09-09T06:49:31;37.65;;;35.50;;
64157;SDS011;50449;51.528;5.076;2022-09-09T06:51:56;38.15;;;35.50;;
64157;SDS011;50449;51.528;5.076;2022-09-09T06:54:22;37.33;;;35.42;;
64157;SDS011;50449;51.528;5.076;2022-09-09T06:56:48;38.78;;;36.47;;
64157;SDS011;50449;51.528;5.076;2022-09-09T06:59:14;38.25;;;36.08;;
64157;SDS011;50449;51.528;5.076;2022-09-09T07:01:41;38.03;;;35.55;;
64157;SDS011;50449;51.528;5.076;2022-09-09T07:04:08;37.28;;;35.03;;
64157;SDS011;50449;51.528;5.076;2022-09-09T07:06:37;35.92;;;34.03;;
64157;SDS011;50449;51.528;5.076;2022-09-09T07:09:06;36.35;;;34.47;;
64157;SDS011;50449;51.528;5.076;2022-09-09T07:11:34;37.45;;;35.50;;
64157;SDS011;50449;51.528;5.076;2022-09-09T07:14:03;35.83;;;34.03;;
64157;SDS011;50449;51.528;5.076;2022-09-09T07:16:28;39.45;;;37.42;;
64157;SDS011;50449;51.528;5.076;2022-09-09T07:18:54;36.08;;;34.13;;
64157;SDS011;50449;51.528;5.076;2022-09-09T07:21:23;36.00;;;33.78;;
64157;SDS011;50449;51.528;5.076;2022-09-09T07:23:49;34.92;;;33.03;;
64157;SDS011;50449;51.528;5.076;2022-09-09T07:26:16;37.45;;;35.55;;
64157;SDS011;50449;51.528;5.076;2022-09-09T07:28:44;36.10;;;34.30;;
64157;SDS011;50449;51.528;5.076;2022-09-09T07:31:14;37.67;;;34.97;;
64157;SDS011;50449;51.528;5.076;2022-09-09T07:33:45;35.60;;;33.65;;
64157;SDS011;50449;51.528;5.076;2022-09-09T07:36:17;37.05;;;35.00;;
64157;SDS011;50449;51.528;5.076;2022-09-09T07:38:52;34.75;;;33.05;;
64157;SDS011;50449;51.528;5.076;2022-09-09T07:41:22;36.33;;;33.92;;
64157;SDS011;50449;51.528;5.076;2022-09-09T07:43:50;37.97;;;35.92;;
64157;SDS011;50449;51.528;5.076;2022-09-09T07:46:17;36.85;;;34.65;;
64157;SDS011;50449;51.528;5.076;2022-09-09T07:48:48;34.75;;;32.70;;
64157;SDS011;50449;51.528;5.076;2022-09-09T07:51:22;37.05;;;34.35;;
64157;SDS011;50449;51.528;5.076;2022-09-09T07:54:04;37.65;;;35.30;;
64157;SDS011;50449;51.528;5.076;2022-09-09T07:56:31;35.30;;;33.00;;
64157;SDS011;50449;51.528;5.076;2022-09-09T07:58:58;37.00;;;34.80;;
64157;SDS011;50449;51.528;5.076;2022-09-09T08:01:25;36.05;;;34.25;;
64157;SDS011;50449;51.528;5.076;2022-09-09T08:03:55;37.08;;;34.80;;
64157;SDS011;50449;51.528;5.076;2022-09-09T08:06:26;35.45;;;33.45;;
64157;SDS011;50449;51.528;5.076;2022-09-09T08:08:53;36.67;;;34.78;;
64157;SDS011;50449;51.528;5.076;2022-09-09T08:11:20;38.03;;;35.83;;
64157;SDS011;50449;51.528;5.076;2022-09-09T08:13:48;36.03;;;34.30;;
64157;SDS011;50449;51.528;5.076;2022-09-09T08:16:16;37.67;;;35.67;;
64157;SDS011;50449;51.528;5.076;2022-09-09T08:23:36;38.20;;;36.10;;
64157;SDS011;50449;51.528;5.076;2022-09-09T08:26:09;35.90;;;34.20;;
64157;SDS011;50449;51.528;5.076;2022-09-09T08:28:36;35.42;;;33.72;;
64157;SDS011;50449;51.528;5.076;2022-09-09T08:31:05;35.20;;;33.38;;
64157;SDS011;50449;51.528;5.076;2022-09-09T08:33:39;36.50;;;34.63;;
64157;SDS011;50449;51.528;5.076;2022-09-09T08:36:06;35.80;;;33.78;;
64157;SDS011;50449;51.528;5.076;2022-09-09T08:38:34;35.65;;;33.70;;
64157;SDS011;50449;51.528;5.076;2022-09-09T08:41:04;37.65;;;35.25;;
64157;SDS011;50449;51.528;5.076;2022-09-09T08:43:45;37.63;;;35.53;;
64157;SDS011;50449;51.528;5.076;2022-09-09T08:48:59;37.42;;;35.25;;
64157;SDS011;50449;51.528;5.076;2022-09-09T08:51:41;38.17;;;35.67;;
64157;SDS011;50449;51.528;5.076;2022-09-09T08:54:07;36.70;;;34.65;;
64157;SDS011;50449;51.528;5.076;2022-09-09T08:56:35;36.83;;;34.80;;
64157;SDS011;50449;51.528;5.076;2022-09-09T08:59:01;39.10;;;37.13;;
64157;SDS011;50449;51.528;5.076;2022-09-09T09:01:45;38.13;;;35.90;;
64157;SDS011;50449;51.528;5.076;2022-09-09T09:04:33;39.90;;;37.75;;
64157;SDS011;50449;51.528;5.076;2022-09-09T09:10:00;40.30;;;37.45;;
64157;SDS011;50449;51.528;5.076;2022-09-09T09:12:29;38.40;;;36.50;;
64157;SDS011;50449;51.528;5.076;2022-09-09T09:14:58;37.92;;;35.50;;
64157;SDS011;50449;51.528;5.076;2022-09-09T09:17:25;38.38;;;36.28;;
64157;SDS011;50449;51.528;5.076;2022-09-09T09:19:53;36.45;;;34.55;;
64157;SDS011;50449;51.528;5.076;2022-09-09T09:22:22;40.13;;;38.00;;
64157;SDS011;50449;51.528;5.076;2022-09-09T09:25:09;37.30;;;34.90;;
64157;SDS011;50449;51.528;5.076;2022-09-09T09:30:38;38.08;;;36.15;;
64157;SDS011;50449;51.528;5.076;2022-09-09T09:35:57;37.30;;;35.40;;
64157;SDS011;50449;51.528;5.076;2022-09-09T09:38:25;38.13;;;36.25;;
64157;SDS011;50449;51.528;5.076;2022-09-09T09:40:53;37.70;;;35.70;;
64157;SDS011;50449;51.528;5.076;2022-09-09T09:43:29;39.65;;;37.05;;
64157;SDS011;50449;51.528;5.076;2022-09-09T09:45:56;37.83;;;35.78;;
64157;SDS011;50449;51.528;5.076;2022-09-09T09:48:22;40.45;;;38.15;;
64157;SDS011;50449;51.528;5.076;2022-09-09T09:50:53;38.83;;;36.53;;
64157;SDS011;50449;51.528;5.076;2022-09-09T09:53:21;40.33;;;37.63;;
64157;SDS011;50449;51.528;5.076;2022-09-09T09:55:50;37.80;;;35.90;;
64157;SDS011;50449;51.528;5.076;2022-09-09T10:01:31;37.72;;;35.30;;
64157;SDS011;50449;51.528;5.076;2022-09-09T10:04:02;39.05;;;36.47;;
64157;SDS011;50449;51.528;5.076;2022-09-09T10:06:44;39.83;;;37.40;;
64157;SDS011;50449;51.528;5.076;2022-09-09T10:09:22;37.75;;;35.75;;
64157;SDS011;50449;51.528;5.076;2022-09-09T10:20:04;37.30;;;34.75;;
64157;SDS011;50449;51.528;5.076;2022-09-09T10:22:45;38.05;;;36.05;;
64157;SDS011;50449;51.528;5.076;2022-09-09T10:33:26;37.83;;;35.67;;
64157;SDS011;50449;51.528;5.076;2022-09-09T10:36:19;38.90;;;36.42;;
64157;SDS011;50449;51.528;5.076;2022-09-09T10:39:14;37.33;;;35.53;;
64157;SDS011;50449;51.528;5.076;2022-09-09T10:42:12;39.25;;;36.90;;
64157;SDS011;50449;51.528;5.076;2022-09-09T10:57:43;38.17;;;36.30;;
64157;SDS011;50449;51.528;5.076;2022-09-09T11:00:17;38.33;;;36.00;;
64157;SDS011;50449;51.528;5.076;2022-09-09T11:02:45;37.67;;;35.78;;
64157;SDS011;50449;51.528;5.076;2022-09-09T11:05:19;38.50;;;36.40;;
64157;SDS011;50449;51.528;5.076;2022-09-09T11:07:48;37.10;;;35.22;;
64157;SDS011;50449;51.528;5.076;2022-09-09T11:13:29;38.63;;;36.67;;
64157;SDS011;50449;51.528;5.076;2022-09-09T11:18:44;38.90;;;36.40;;
64157;SDS011;50449;51.528;5.076;2022-09-09T11:21:22;39.42;;;37.42;;
64157;SDS011;50449;51.528;5.076;2022-09-09T11:23:57;39.65;;;37.33;;
64157;SDS011;50449;51.528;5.076;2022-09-09T11:26:35;39.65;;;37.58;;
64157;SDS011;50449;51.528;5.076;2022-09-09T11:34:43;39.40;;;37.13;;
64157;SDS011;50449;51.528;5.076;2022-09-09T11:40:18;38.85;;;36.83;;
64157;SDS011;50449;51.528;5.076;2022-09-09T11:42:48;38.95;;;37.13;;
64157;SDS011;50449;51.528;5.076;2022-09-09T11:47:52;37.40;;;35.60;;
64157;SDS011;50449;51.528;5.076;2022-09-09T11:52:49;39.63;;;37.53;;
64157;SDS011;50449;51.528;5.076;2022-09-09T11:55:25;40.00;;;37.70;;
64157;SDS011;50449;51.528;5.076;2022-09-09T11:57:59;40.35;;;38.25;;
64157;SDS011;50449;51.528;5.076;2022-09-09T12:00:34;41.40;;;38.63;;
64157;SDS011;50449;51.528;5.076;2022-09-09T12:03:02;39.13;;;37.10;;
64157;SDS011;50449;51.528;5.076;2022-09-09T12:05:35;39.58;;;37.55;;
64157;SDS011;50449;51.528;5.076;2022-09-09T12:08:11;39.88;;;37.65;;
64157;SDS011;50449;51.528;5.076;2022-09-09T12:10:52;43.00;;;40.55;;
64157;SDS011;50449;51.528;5.076;2022-09-09T12:13:20;38.72;;;36.83;;
64157;SDS011;50449;51.528;5.076;2022-09-09T12:18:38;39.85;;;37.90;;
64157;SDS011;50449;51.528;5.076;2022-09-09T12:21:18;39.35;;;37.35;;
64157;SDS011;50449;51.528;5.076;2022-09-09T12:27:11;41.78;;;39.63;;
64157;SDS011;50449;51.528;5.076;2022-09-09T12:32:25;40.22;;;38.22;;
64157;SDS011;50449;51.528;5.076;2022-09-09T12:34:54;41.30;;;39.10;;
64157;SDS011;50449;51.528;5.076;2022-09-09T12:37:44;39.75;;;37.85;;
64157;SDS011;50449;51.528;5.076;2022-09-09T12:42:43;38.88;;;36.97;;
64157;SDS011;50449;51.528;5.076;2022-09-09T12:48:06;40.35;;;38.15;;
64157;SDS011;50449;51.528;5.076;2022-09-09T12:50:37;40.47;;;38.33;;
64157;SDS011;50449;51.528;5.076;2022-09-09T12:53:29;42.63;;;40.22;;
64157;SDS011;50449;51.528;5.076;2022-09-09T12:56:01;42.17;;;39.85;;
64157;SDS011;50449;51.528;5.076;2022-09-09T12:58:30;40.10;;;38.00;;
64157;SDS011;50449;51.528;5.076;2022-09-09T13:00:59;41.25;;;39.20;;
64157;SDS011;50449;51.528;5.076;2022-09-09T13:03:28;41.08;;;38.78;;
64157;SDS011;50449;51.528;5.076;2022-09-09T13:05:56;42.63;;;40.25;;
64157;SDS011;50449;51.528;5.076;2022-09-09T13:08:25;42.30;;;40.10;;
64157;SDS011;50449;51.528;5.076;2022-09-09T13:11:01;43.67;;;41.55;;
64157;SDS011;50449;51.528;5.076;2022-09-09T13:13:36;41.85;;;39.15;;
64157;SDS011;50449;51.528;5.076;2022-09-09T13:16:03;42.67;;;40.35;;
64157;SDS011;50449;51.528;5.076;2022-09-09T13:18:34;43.70;;;41.17;;
64157;SDS011;50449;51.528;5.076;2022-09-09T13:21:03;43.72;;;41.55;;
64157;SDS011;50449;51.528;5.076;2022-09-09T13:23:33;42.15;;;40.05;;
64157;SDS011;50449;51.528;5.076;2022-09-09T13:26:04;41.10;;;39.10;;
64157;SDS011;50449;51.528;5.076;2022-09-09T13:28:32;42.40;;;40.40;;
64157;SDS011;50449;51.528;5.076;2022-09-09T13:31:00;44.15;;;41.67;;
64157;SDS011;50449;51.528;5.076;2022-09-09T13:33:34;43.00;;;40.83;;
64157;SDS011;50449;51.528;5.076;2022-09-09T13:36:08;41.63;;;39.22;;
64157;SDS011;50449;51.528;5.076;2022-09-09T13:38:36;42.67;;;40.60;;
64157;SDS011;50449;51.528;5.076;2022-09-09T13:41:21;44.03;;;41.47;;
64157;SDS011;50449;51.528;5.076;2022-09-09T13:43:53;42.70;;;40.50;;
64157;SDS011;50449;51.528;5.076;2022-09-09T13:46:39;43.75;;;41.47;;
64157;SDS011;50449;51.528;5.076;2022-09-09T13:51:35;42.67;;;40.67;;
64157;SDS011;50449;51.528;5.076;2022-09-09T13:54:06;42.63;;;40.47;;
64157;SDS011;50449;51.528;5.076;2022-09-09T13:56:35;44.30;;;41.83;;
64157;SDS011;50449;51.528;5.076;2022-09-09T13:59:02;41.47;;;39.53;;
64157;SDS011;50449;51.528;5.076;2022-09-09T14:01:29;43.42;;;41.42;;
64157;SDS011;50449;51.528;5.076;2022-09-09T14:03:55;44.03;;;41.92;;
64157;SDS011;50449;51.528;5.076;2022-09-09T14:06:21;45.83;;;43.63;;
64157;SDS011;50449;51.528;5.076;2022-09-09T14:08:50;46.38;;;43.97;;
64157;SDS011;50449;51.528;5.076;2022-09-09T14:11:15;44.03;;;41.53;;
64157;SDS011;50449;51.528;5.076;2022-09-09T14:13:42;45.50;;;43.25;;
64157;SDS011;50449;51.528;5.076;2022-09-09T14:16:08;43.25;;;41.05;;
64157;SDS011;50449;51.528;5.076;2022-09-09T14:18:33;44.95;;;42.55;;
64157;SDS011;50449;51.528;5.076;2022-09-09T14:20:59;44.47;;;42.28;;
64157;SDS011;50449;51.528;5.076;2022-09-09T14:23:24;47.88;;;45.38;;
64157;SDS011;50449;51.528;5.076;2022-09-09T14:25:50;46.08;;;43.67;;
64157;SDS011;50449;51.528;5.076;2022-09-09T14:28:16;44.95;;;42.75;;
64157;SDS011;50449;51.528;5.076;2022-09-09T14:30:42;46.00;;;43.42;;
64157;SDS011;50449;51.528;5.076;2022-09-09T14:33:10;46.13;;;43.63;;
64157;SDS011;50449;51.528;5.076;2022-09-09T14:35:36;45.42;;;42.95;;
64157;SDS011;50449;51.528;5.076;2022-09-09T14:38:03;44.67;;;42.33;;
64157;SDS011;50449;51.528;5.076;2022-09-09T14:40:30;47.65;;;44.75;;
64157;SDS011;50449;51.528;5.076;2022-09-09T14:42:55;45.83;;;43.35;;
64157;SDS011;50449;51.528;5.076;2022-09-09T14:45:22;46.17;;;43.58;;
64157;SDS011;50449;51.528;5.076;2022-09-09T14:50:15;44.15;;;41.53;;
64157;SDS011;50449;51.528;5.076;2022-09-09T14:52:41;46.97;;;44.30;;
64157;SDS011;50449;51.528;5.076;2022-09-09T14:55:07;43.97;;;41.78;;
64157;SDS011;50449;51.528;5.076;2022-09-09T14:57:32;44.85;;;42.60;;
64157;SDS011;50449;51.528;5.076;2022-09-09T14:59:59;47.53;;;44.90;;
64157;SDS011;50449;51.528;5.076;2022-09-09T15:02:25;45.05;;;42.92;;
64157;SDS011;50449;51.528;5.076;2022-09-09T15:04:50;47.90;;;45.55;;
64157;SDS011;50449;51.528;5.076;2022-09-09T15:07:17;42.83;;;40.75;;
64157;SDS011;50449;51.528;5.076;2022-09-09T15:09:44;45.70;;;43.40;;
64157;SDS011;50449;51.528;5.076;2022-09-09T15:12:10;45.35;;;42.75;;
64157;SDS011;50449;51.528;5.076;2022-09-09T15:14:35;43.53;;;41.42;;
64157;SDS011;50449;51.528;5.076;2022-09-09T15:17:01;45.50;;;43.17;;
64157;SDS011;50449;51.528;5.076;2022-09-09T15:19:26;44.58;;;42.22;;
64157;SDS011;50449;51.528;5.076;2022-09-09T15:21:52;44.40;;;41.70;;
64157;SDS011;50449;51.528;5.076;2022-09-09T15:24:17;43.28;;;40.92;;
64157;SDS011;50449;51.528;5.076;2022-09-09T15:26:43;44.40;;;42.15;;
64157;SDS011;50449;51.528;5.076;2022-09-09T15:29:08;43.47;;;41.38;;
64157;SDS011;50449;51.528;5.076;2022-09-09T15:31:34;45.70;;;43.40;;
64157;SDS011;50449;51.528;5.076;2022-09-09T15:34:00;47.30;;;44.80;;
64157;SDS011;50449;51.528;5.076;2022-09-09T15:36:31;44.65;;;42.55;;
64157;SDS011;50449;51.528;5.076;2022-09-09T15:38:59;46.13;;;43.83;;
64157;SDS011;50449;51.528;5.076;2022-09-09T15:41:26;43.35;;;41.17;;
64157;SDS011;50449;51.528;5.076;2022-09-09T15:43:52;45.42;;;43.13;;
64157;SDS011;50449;51.528;5.076;2022-09-09T15:46:22;44.80;;;42.60;;
64157;SDS011;50449;51.528;5.076;2022-09-09T15:48:50;46.47;;;44.17;;
64157;SDS011;50449;51.528;5.076;2022-09-09T15:51:17;45.63;;;43.40;;
64157;SDS011;50449;51.528;5.076;2022-09-09T15:53:43;46.58;;;43.75;;
64157;SDS011;50449;51.528;5.076;2022-09-09T15:56:10;45.10;;;42.78;;
64157;SDS011;50449;51.528;5.076;2022-09-09T15:58:35;45.10;;;42.72;;
64157;SDS011;50449;51.528;5.076;2022-09-09T16:01:05;45.58;;;43.08;;
64157;SDS011;50449;51.528;5.076;2022-09-09T16:03:35;47.22;;;44.70;;
64157;SDS011;50449;51.528;5.076;2022-09-09T16:06:02;44.63;;;42.40;;
64157;SDS011;50449;51.528;5.076;2022-09-09T16:08:35;44.33;;;42.13;;
64157;SDS011;50449;51.528;5.076;2022-09-09T16:11:06;46.25;;;43.78;;
64157;SDS011;50449;51.528;5.076;2022-09-09T16:13:34;45.35;;;43.03;;
64157;SDS011;50449;51.528;5.076;2022-09-09T16:16:04;46.08;;;43.63;;
64157;SDS011;50449;51.528;5.076;2022-09-09T16:18:34;46.40;;;43.67;;
64157;SDS011;50449;51.528;5.076;2022-09-09T16:21:04;50.00;;;47.40;;
64157;SDS011;50449;51.528;5.076;2022-09-09T16:23:30;45.40;;;42.90;;
64157;SDS011;50449;51.528;5.076;2022-09-09T16:25:57;44.70;;;42.40;;
64157;SDS011;50449;51.528;5.076;2022-09-09T16:28:23;43.55;;;41.35;;
64157;SDS011;50449;51.528;5.076;2022-09-09T16:30:49;46.40;;;43.55;;
64157;SDS011;50449;51.528;5.076;2022-09-09T16:33:14;43.70;;;41.53;;
64157;SDS011;50449;51.528;5.076;2022-09-09T16:35:40;45.85;;;43.45;;
64157;SDS011;50449;51.528;5.076;2022-09-09T16:38:06;45.25;;;42.65;;
64157;SDS011;50449;51.528;5.076;2022-09-09T16:40:35;44.92;;;42.35;;
64157;SDS011;50449;51.528;5.076;2022-09-09T16:43:06;46.72;;;43.60;;
64157;SDS011;50449;51.528;5.076;2022-09-09T16:45:32;44.28;;;41.85;;
64157;SDS011;50449;51.528;5.076;2022-09-09T16:47:58;47.83;;;44.85;;
64157;SDS011;50449;51.528;5.076;2022-09-09T16:50:25;44.13;;;41.85;;